IBE14N SBFZ-GVAC
Flight info
| Callsign | IBE14N |
|---|---|
| Flight time | 3h 26m |
| Altitude | 41000 |
| Route | TOGAB UZ18 ARTIG UN866 DEKON/N0485F400 UN866 AMDOL/N0481F410 DCT RANUR GAGUS1F |
| Aircraft | A359/H-SDE2E3GHIJ3J4J5LM1ORWXY/LB1D1 |
Departure
| Time | 2026-04-23 08:40 |
|---|---|
| Airport | Pinto Martins International Airport (SBFZ) |
Arrival
| Time | 2026-04-23 12:07 |
|---|---|
| Airport | Amílcar Cabral International Airport (GVAC) |
| Time | Latitude | Longitude | Altitude | Speed | Heading |
|---|---|---|---|---|---|
| 2026-04-23 08:26 | -3.77748 | -38.54104 | 72 ft | 0 kts | 194° |
| 2026-04-23 08:26 | -3.77748 | -38.54105 | 98 ft | 0 kts | 193° |
| 2026-04-23 08:32 | -3.77747 | -38.54105 | 98 ft | 1 kts | 193° |
| 2026-04-23 08:32 | -3.77733 | -38.54101 | 96 ft | 2 kts | 195° |
| 2026-04-23 08:32 | -3.77717 | -38.54097 | 96 ft | 3 kts | 202° |
| 2026-04-23 08:32 | -3.77700 | -38.54089 | 96 ft | 3 kts | 223° |
| 2026-04-23 08:33 | -3.77690 | -38.54077 | 96 ft | 3 kts | 251° |
| 2026-04-23 08:33 | -3.77686 | -38.54061 | 93 ft | 3 kts | 275° |
| 2026-04-23 08:33 | -3.77689 | -38.54042 | 94 ft | 3 kts | 285° |
| 2026-04-23 08:33 | -3.77695 | -38.54024 | 94 ft | 2 kts | 285° |
| 2026-04-23 08:34 | -3.77697 | -38.54016 | 95 ft | 0 kts | 284° |
| 2026-04-23 08:38 | -3.77696 | -38.54021 | 98 ft | 6 kts | 284° |
| 2026-04-23 08:38 | -3.77667 | -38.54134 | 99 ft | 23 kts | 284° |
| 2026-04-23 08:38 | -3.77628 | -38.54291 | 98 ft | 23 kts | 284° |
| 2026-04-23 08:39 | -3.77517 | -38.54384 | 101 ft | 21 kts | 351° |
| 2026-04-23 08:39 | -3.77377 | -38.54354 | 102 ft | 20 kts | 41° |
| 2026-04-23 08:39 | -3.77371 | -38.54230 | 101 ft | 19 kts | 104° |
| 2026-04-23 08:39 | -3.77453 | -38.53930 | 98 ft | 87 kts | 104° |
| 2026-04-23 08:40 | -3.77689 | -38.53052 | 89 ft | 171 kts | 105° |
| 2026-04-23 08:40 | -3.78055 | -38.51771 | 659 ft | 201 kts | 106° |
| 2026-04-23 08:40 | -3.78390 | -38.50410 | 1636 ft | 205 kts | 99° |
| 2026-04-23 08:40 | -3.78139 | -38.49006 | 2046 ft | 214 kts | 62° |
| 2026-04-23 08:41 | -3.77301 | -38.47706 | 2326 ft | 233 kts | 57° |
| 2026-04-23 08:41 | -3.76334 | -38.46306 | 2620 ft | 252 kts | 56° |
| 2026-04-23 08:41 | -3.75302 | -38.44849 | 3193 ft | 258 kts | 56° |
| 2026-04-23 08:41 | -3.74255 | -38.43382 | 3828 ft | 261 kts | 57° |
| 2026-04-23 08:42 | -3.73192 | -38.41899 | 4459 ft | 263 kts | 57° |
| 2026-04-23 08:42 | -3.72117 | -38.40398 | 5084 ft | 266 kts | 57° |
| 2026-04-23 08:42 | -3.71036 | -38.38888 | 5726 ft | 267 kts | 57° |
| 2026-04-23 08:42 | -3.69947 | -38.37370 | 6342 ft | 269 kts | 57° |
| 2026-04-23 08:43 | -3.68850 | -38.35839 | 6900 ft | 271 kts | 57° |
| 2026-04-23 08:43 | -3.67743 | -38.34296 | 7458 ft | 274 kts | 57° |
| 2026-04-23 08:43 | -3.66639 | -38.32757 | 8010 ft | 277 kts | 56° |
| 2026-04-23 08:43 | -3.65510 | -38.31186 | 8568 ft | 280 kts | 56° |
| 2026-04-23 08:44 | -3.64371 | -38.29598 | 9149 ft | 282 kts | 56° |
| 2026-04-23 08:44 | -3.63216 | -38.27989 | 9727 ft | 285 kts | 56° |
| 2026-04-23 08:44 | -3.62050 | -38.26365 | 10185 ft | 291 kts | 56° |
| 2026-04-23 08:44 | -3.60841 | -38.24678 | 10404 ft | 305 kts | 56° |
| 2026-04-23 08:45 | -3.59572 | -38.22910 | 10600 ft | 319 kts | 56° |
| 2026-04-23 08:45 | -3.58253 | -38.21072 | 10798 ft | 332 kts | 56° |
| 2026-04-23 08:45 | -3.57349 | -38.19813 | 10927 ft | 340 kts | 56° |
| 2026-04-23 08:45 | -3.55945 | -38.17859 | 11117 ft | 351 kts | 56° |
| 2026-04-23 08:46 | -3.54502 | -38.15848 | 11354 ft | 359 kts | 56° |
| 2026-04-23 08:46 | -3.53035 | -38.13806 | 11708 ft | 363 kts | 56° |
| 2026-04-23 08:46 | -3.51558 | -38.11750 | 12097 ft | 365 kts | 56° |
| 2026-04-23 08:46 | -3.50069 | -38.09678 | 12488 ft | 368 kts | 56° |
| 2026-04-23 08:47 | -3.48571 | -38.07593 | 12869 ft | 369 kts | 56° |
| 2026-04-23 08:47 | -3.47087 | -38.05527 | 13234 ft | 371 kts | 55° |
| 2026-04-23 08:47 | -3.45573 | -38.03420 | 13600 ft | 373 kts | 55° |
| 2026-04-23 08:47 | -3.44052 | -38.01303 | 13948 ft | 375 kts | 55° |
| 2026-04-23 08:48 | -3.42522 | -37.99172 | 14266 ft | 377 kts | 55° |
| 2026-04-23 08:48 | -3.40987 | -37.97036 | 14567 ft | 380 kts | 55° |
| 2026-04-23 08:48 | -3.39441 | -37.94884 | 14897 ft | 381 kts | 55° |
| 2026-04-23 08:48 | -3.37884 | -37.92718 | 15235 ft | 383 kts | 55° |
| 2026-04-23 08:49 | -3.36322 | -37.90544 | 15564 ft | 385 kts | 55° |
| 2026-04-23 08:49 | -3.34753 | -37.88361 | 15885 ft | 387 kts | 55° |
| 2026-04-23 08:49 | -3.33197 | -37.86195 | 16220 ft | 389 kts | 55° |
| 2026-04-23 08:49 | -3.31614 | -37.83993 | 16531 ft | 391 kts | 55° |
| 2026-04-23 08:50 | -3.30020 | -37.81775 | 16846 ft | 393 kts | 55° |
| 2026-04-23 08:50 | -3.28421 | -37.79551 | 17166 ft | 395 kts | 55° |
| 2026-04-23 08:50 | -3.26810 | -37.77310 | 17482 ft | 397 kts | 55° |
| 2026-04-23 08:50 | -3.25201 | -37.75049 | 17800 ft | 399 kts | 56° |
| 2026-04-23 08:51 | -3.23648 | -37.72739 | 18105 ft | 401 kts | 58° |
| 2026-04-23 08:51 | -3.22124 | -37.70389 | 18379 ft | 403 kts | 58° |
| 2026-04-23 08:51 | -3.20625 | -37.68053 | 18645 ft | 404 kts | 58° |
| 2026-04-23 08:51 | -3.19097 | -37.65678 | 18926 ft | 406 kts | 58° |
| 2026-04-23 08:52 | -3.17558 | -37.63304 | 19194 ft | 407 kts | 58° |
| 2026-04-23 08:52 | -3.16007 | -37.60927 | 19476 ft | 409 kts | 57° |
| 2026-04-23 08:52 | -3.14441 | -37.58540 | 19744 ft | 410 kts | 57° |
| 2026-04-23 08:52 | -3.12865 | -37.56144 | 19998 ft | 412 kts | 57° |
| 2026-04-23 08:53 | -3.11283 | -37.53743 | 20251 ft | 414 kts | 57° |
| 2026-04-23 08:53 | -3.09695 | -37.51332 | 20513 ft | 416 kts | 57° |
| 2026-04-23 08:53 | -3.08102 | -37.48913 | 20784 ft | 417 kts | 57° |
| 2026-04-23 08:53 | -3.06500 | -37.46480 | 21047 ft | 419 kts | 57° |
| 2026-04-23 08:54 | -3.04896 | -37.44044 | 21288 ft | 420 kts | 57° |
| 2026-04-23 08:54 | -3.03284 | -37.41596 | 21545 ft | 422 kts | 57° |
| 2026-04-23 08:54 | -3.01667 | -37.39140 | 21781 ft | 424 kts | 56° |
| 2026-04-23 08:54 | -3.00043 | -37.36673 | 22030 ft | 425 kts | 56° |
| 2026-04-23 08:55 | -2.98432 | -37.34226 | 22255 ft | 427 kts | 56° |
| 2026-04-23 08:55 | -2.96792 | -37.31735 | 22504 ft | 429 kts | 56° |
| 2026-04-23 08:55 | -2.95146 | -37.29234 | 22715 ft | 431 kts | 56° |
| 2026-04-23 08:55 | -2.93497 | -37.26730 | 22943 ft | 432 kts | 56° |
| 2026-04-23 08:56 | -2.91834 | -37.24204 | 23161 ft | 434 kts | 56° |
| 2026-04-23 08:56 | -2.90173 | -37.21681 | 23385 ft | 436 kts | 56° |
| 2026-04-23 08:56 | -2.88503 | -37.19146 | 23589 ft | 437 kts | 56° |
| 2026-04-23 08:56 | -2.86823 | -37.16595 | 23789 ft | 439 kts | 56° |
| 2026-04-23 08:57 | -2.85138 | -37.14037 | 23961 ft | 440 kts | 56° |
| 2026-04-23 08:57 | -2.83455 | -37.11481 | 24159 ft | 441 kts | 56° |
| 2026-04-23 08:57 | -2.81765 | -37.08915 | 24361 ft | 442 kts | 56° |
| 2026-04-23 08:57 | -2.80071 | -37.06344 | 24546 ft | 443 kts | 56° |
| 2026-04-23 08:58 | -2.78370 | -37.03761 | 24733 ft | 445 kts | 56° |
| 2026-04-23 08:58 | -2.76685 | -37.01204 | 24906 ft | 446 kts | 56° |
| 2026-04-23 08:58 | -2.74974 | -36.98606 | 25113 ft | 447 kts | 56° |
| 2026-04-23 08:58 | -2.73262 | -36.96008 | 25293 ft | 448 kts | 56° |
| 2026-04-23 08:59 | -2.71544 | -36.93400 | 25481 ft | 449 kts | 57° |
| 2026-04-23 08:59 | -2.69824 | -36.90790 | 25677 ft | 451 kts | 57° |
| 2026-04-23 08:59 | -2.68093 | -36.88164 | 25858 ft | 452 kts | 57° |
| 2026-04-23 08:59 | -2.66364 | -36.85541 | 26063 ft | 453 kts | 57° |
| 2026-04-23 09:00 | -2.64622 | -36.82897 | 26259 ft | 454 kts | 57° |
| 2026-04-23 09:00 | -2.62878 | -36.80253 | 26443 ft | 456 kts | 57° |
| 2026-04-23 09:00 | -2.61130 | -36.77600 | 26656 ft | 457 kts | 57° |
| 2026-04-23 09:00 | -2.59378 | -36.74943 | 26840 ft | 458 kts | 57° |
| 2026-04-23 09:01 | -2.57622 | -36.72279 | 27049 ft | 460 kts | 57° |
| 2026-04-23 09:01 | -2.55880 | -36.69637 | 27249 ft | 461 kts | 57° |
| 2026-04-23 09:01 | -2.54110 | -36.66952 | 27440 ft | 463 kts | 57° |
| 2026-04-23 09:01 | -2.52330 | -36.64253 | 27665 ft | 464 kts | 57° |
| 2026-04-23 09:02 | -2.50550 | -36.61554 | 27855 ft | 466 kts | 57° |
| 2026-04-23 09:02 | -2.48763 | -36.58843 | 28067 ft | 467 kts | 57° |
| 2026-04-23 09:02 | -2.46970 | -36.56125 | 28271 ft | 469 kts | 57° |
| 2026-04-23 09:02 | -2.45173 | -36.53400 | 28477 ft | 470 kts | 57° |
| 2026-04-23 09:03 | -2.43368 | -36.50664 | 28708 ft | 471 kts | 57° |
| 2026-04-23 09:03 | -2.41560 | -36.47923 | 28892 ft | 473 kts | 57° |
| 2026-04-23 09:03 | -2.39747 | -36.45175 | 29094 ft | 475 kts | 57° |
| 2026-04-23 09:03 | -2.37926 | -36.42414 | 29300 ft | 476 kts | 57° |
| 2026-04-23 09:04 | -2.36125 | -36.39684 | 29535 ft | 477 kts | 57° |
| 2026-04-23 09:04 | -2.34293 | -36.36907 | 29731 ft | 479 kts | 57° |
| 2026-04-23 09:04 | -2.32455 | -36.34121 | 29943 ft | 481 kts | 57° |
| 2026-04-23 09:04 | -2.30607 | -36.31321 | 30127 ft | 482 kts | 57° |
| 2026-04-23 09:05 | -2.28757 | -36.28519 | 30322 ft | 483 kts | 57° |
| 2026-04-23 09:05 | -2.26903 | -36.25708 | 30530 ft | 484 kts | 57° |
| 2026-04-23 09:05 | -2.25050 | -36.22901 | 30735 ft | 485 kts | 57° |
| 2026-04-23 09:05 | -2.23186 | -36.20077 | 30936 ft | 486 kts | 57° |
| 2026-04-23 09:06 | -2.21321 | -36.17252 | 31151 ft | 487 kts | 57° |
| 2026-04-23 09:06 | -2.19452 | -36.14421 | 31340 ft | 488 kts | 57° |
| 2026-04-23 09:06 | -2.17608 | -36.11626 | 31556 ft | 489 kts | 57° |
| 2026-04-23 09:06 | -2.15731 | -36.08783 | 31752 ft | 490 kts | 57° |
| 2026-04-23 09:07 | -2.13853 | -36.05938 | 31944 ft | 491 kts | 57° |
| 2026-04-23 09:07 | -2.11966 | -36.03080 | 32149 ft | 492 kts | 57° |
| 2026-04-23 09:07 | -2.10078 | -36.00221 | 32328 ft | 493 kts | 57° |
| 2026-04-23 09:07 | -2.08192 | -35.97363 | 32536 ft | 493 kts | 57° |
| 2026-04-23 09:08 | -2.06303 | -35.94503 | 32842 ft | 491 kts | 57° |
| 2026-04-23 09:08 | -2.04421 | -35.91655 | 33144 ft | 490 kts | 57° |
| 2026-04-23 09:08 | -2.02545 | -35.88813 | 33424 ft | 488 kts | 57° |
| 2026-04-23 09:08 | -2.00677 | -35.85985 | 33748 ft | 487 kts | 57° |
| 2026-04-23 09:09 | -1.98812 | -35.83161 | 34078 ft | 485 kts | 57° |
| 2026-04-23 09:09 | -1.96958 | -35.80355 | 34392 ft | 483 kts | 57° |
| 2026-04-23 09:09 | -1.95108 | -35.77554 | 34729 ft | 481 kts | 58° |
| 2026-04-23 09:09 | -1.93291 | -35.74803 | 35080 ft | 478 kts | 58° |
| 2026-04-23 09:10 | -1.91464 | -35.72037 | 35425 ft | 476 kts | 58° |
| 2026-04-23 09:10 | -1.87828 | -35.66534 | 36155 ft | 471 kts | 58° |
| 2026-04-23 09:10 | -1.86027 | -35.63809 | 36497 ft | 469 kts | 58° |
| 2026-04-23 09:11 | -1.84228 | -35.61085 | 36844 ft | 467 kts | 58° |
| 2026-04-23 09:11 | -1.82444 | -35.58385 | 37202 ft | 465 kts | 58° |
| 2026-04-23 09:11 | -1.80666 | -35.55694 | 37558 ft | 463 kts | 58° |
| 2026-04-23 09:11 | -1.78894 | -35.53012 | 37919 ft | 460 kts | 58° |
| 2026-04-23 09:12 | -1.77111 | -35.50359 | 38280 ft | 459 kts | 56° |
| 2026-04-23 09:12 | -1.75125 | -35.47911 | 38606 ft | 459 kts | 49° |
| 2026-04-23 09:12 | -1.72805 | -35.45717 | 38851 ft | 461 kts | 42° |
| 2026-04-23 09:12 | -1.70174 | -35.43863 | 39039 ft | 465 kts | 34° |
| 2026-04-23 09:13 | -1.67381 | -35.42218 | 39208 ft | 467 kts | 33° |
| 2026-04-23 09:13 | -1.64543 | -35.40641 | 39408 ft | 467 kts | 32° |
| 2026-04-23 09:13 | -1.61684 | -35.39092 | 39586 ft | 467 kts | 31° |
| 2026-04-23 09:13 | -1.58813 | -35.37548 | 39770 ft | 468 kts | 31° |
| 2026-04-23 09:14 | -1.55954 | -35.36004 | 39954 ft | 468 kts | 31° |
| 2026-04-23 09:14 | -1.53091 | -35.34448 | 40144 ft | 468 kts | 31° |
| 2026-04-23 09:14 | -1.50230 | -35.32886 | 40314 ft | 467 kts | 31° |
| 2026-04-23 09:14 | -1.47384 | -35.31326 | 40492 ft | 468 kts | 31° |
| 2026-04-23 09:15 | -1.44532 | -35.29759 | 40658 ft | 468 kts | 31° |
| 2026-04-23 09:15 | -1.41681 | -35.28192 | 40833 ft | 468 kts | 31° |
| 2026-04-23 09:15 | -1.38828 | -35.26623 | 40926 ft | 468 kts | 31° |
| 2026-04-23 09:16 | -1.33126 | -35.23489 | 40933 ft | 467 kts | 31° |
| 2026-04-23 09:16 | -1.27464 | -35.20378 | 40934 ft | 468 kts | 31° |
| 2026-04-23 09:17 | -1.21753 | -35.17242 | 40932 ft | 468 kts | 31° |
| 2026-04-23 09:17 | -1.16049 | -35.14108 | 40932 ft | 468 kts | 31° |
| 2026-04-23 09:18 | -1.10338 | -35.10971 | 40928 ft | 468 kts | 31° |
| 2026-04-23 09:18 | -1.04631 | -35.07836 | 40933 ft | 468 kts | 31° |
| 2026-04-23 09:19 | -0.98928 | -35.04704 | 40933 ft | 468 kts | 31° |
| 2026-04-23 09:19 | -0.93225 | -35.01572 | 40931 ft | 468 kts | 31° |
| 2026-04-23 09:20 | -0.87515 | -34.98436 | 40934 ft | 468 kts | 31° |
| 2026-04-23 09:20 | -0.81851 | -34.95326 | 40934 ft | 468 kts | 31° |
| 2026-04-23 09:21 | -0.76137 | -34.92188 | 40935 ft | 468 kts | 31° |
| 2026-04-23 09:21 | -0.70426 | -34.89052 | 40933 ft | 468 kts | 31° |
| 2026-04-23 09:22 | -0.64717 | -34.85917 | 40931 ft | 468 kts | 31° |
| 2026-04-23 09:22 | -0.59005 | -34.82780 | 40934 ft | 468 kts | 31° |
| 2026-04-23 09:23 | -0.53322 | -34.79660 | 40935 ft | 468 kts | 31° |
| 2026-04-23 09:23 | -0.47608 | -34.76522 | 40936 ft | 468 kts | 31° |
| 2026-04-23 09:24 | -0.41884 | -34.73379 | 40936 ft | 469 kts | 31° |
| 2026-04-23 09:24 | -0.36166 | -34.70240 | 40940 ft | 469 kts | 30° |
| 2026-04-23 09:25 | -0.30449 | -34.67101 | 40938 ft | 469 kts | 30° |
| 2026-04-23 09:25 | -0.24767 | -34.63982 | 40939 ft | 469 kts | 30° |
| 2026-04-23 09:26 | -0.19043 | -34.60839 | 40940 ft | 469 kts | 30° |
| 2026-04-23 09:26 | -0.13316 | -34.57695 | 40939 ft | 469 kts | 30° |
| 2026-04-23 09:27 | -0.07590 | -34.54551 | 40941 ft | 470 kts | 30° |
| 2026-04-23 09:27 | -0.01860 | -34.51405 | 40940 ft | 470 kts | 30° |
| 2026-04-23 09:28 | 0.03839 | -34.48276 | 40943 ft | 470 kts | 30° |
| 2026-04-23 09:28 | 0.09576 | -34.45127 | 40944 ft | 471 kts | 30° |
| 2026-04-23 09:29 | 0.15318 | -34.41974 | 40943 ft | 471 kts | 30° |
| 2026-04-23 09:29 | 0.21067 | -34.38818 | 40948 ft | 471 kts | 30° |
| 2026-04-23 09:30 | 0.26819 | -34.35660 | 40948 ft | 472 kts | 30° |
| 2026-04-23 09:30 | 0.32569 | -34.32503 | 40947 ft | 472 kts | 30° |
| 2026-04-23 09:31 | 0.38331 | -34.29339 | 40949 ft | 472 kts | 30° |
| 2026-04-23 09:31 | 0.44084 | -34.26180 | 40951 ft | 472 kts | 30° |
| 2026-04-23 09:32 | 0.49852 | -34.23013 | 40948 ft | 473 kts | 30° |
| 2026-04-23 09:32 | 0.55585 | -34.19866 | 40951 ft | 473 kts | 30° |
| 2026-04-23 09:33 | 0.61363 | -34.16693 | 40952 ft | 474 kts | 30° |
| 2026-04-23 09:33 | 0.67157 | -34.13511 | 40952 ft | 474 kts | 30° |
| 2026-04-23 09:34 | 0.72910 | -34.10352 | 40952 ft | 474 kts | 30° |
| 2026-04-23 09:34 | 0.78699 | -34.07173 | 40951 ft | 474 kts | 30° |
| 2026-04-23 09:35 | 0.84491 | -34.03993 | 40951 ft | 475 kts | 30° |
| 2026-04-23 09:35 | 0.89305 | -34.01351 | 40950 ft | 475 kts | 30° |
| 2026-04-23 09:36 | 0.95103 | -33.98167 | 40955 ft | 476 kts | 31° |
| 2026-04-23 09:36 | 1.00912 | -33.94978 | 40955 ft | 476 kts | 31° |
| 2026-04-23 09:37 | 1.06722 | -33.91788 | 40954 ft | 477 kts | 31° |
| 2026-04-23 09:37 | 1.12540 | -33.88594 | 40953 ft | 477 kts | 31° |
| 2026-04-23 09:38 | 1.18334 | -33.85412 | 40955 ft | 477 kts | 31° |
| 2026-04-23 09:38 | 1.24161 | -33.82213 | 40955 ft | 478 kts | 31° |
| 2026-04-23 09:39 | 1.29989 | -33.79013 | 40954 ft | 478 kts | 31° |
| 2026-04-23 09:39 | 1.35831 | -33.75804 | 40954 ft | 479 kts | 31° |
| 2026-04-23 09:40 | 1.41681 | -33.72591 | 40959 ft | 479 kts | 31° |
| 2026-04-23 09:40 | 1.47525 | -33.69382 | 40957 ft | 479 kts | 31° |
| 2026-04-23 09:41 | 1.53375 | -33.66169 | 40958 ft | 479 kts | 31° |
| 2026-04-23 09:41 | 1.59221 | -33.62958 | 40959 ft | 479 kts | 31° |
| 2026-04-23 09:42 | 1.65070 | -33.59745 | 40958 ft | 479 kts | 31° |
| 2026-04-23 09:42 | 1.70878 | -33.56554 | 40957 ft | 479 kts | 31° |
| 2026-04-23 09:43 | 1.76728 | -33.53342 | 40959 ft | 479 kts | 31° |
| 2026-04-23 09:43 | 1.82568 | -33.50133 | 40957 ft | 479 kts | 31° |
| 2026-04-23 09:44 | 1.88418 | -33.46918 | 40957 ft | 479 kts | 31° |
| 2026-04-23 09:44 | 1.94254 | -33.43711 | 40960 ft | 479 kts | 31° |
| 2026-04-23 09:45 | 2.00057 | -33.40523 | 40961 ft | 479 kts | 32° |
| 2026-04-23 09:45 | 2.05908 | -33.37307 | 40956 ft | 479 kts | 32° |
| 2026-04-23 09:46 | 2.11751 | -33.34096 | 40961 ft | 479 kts | 32° |
| 2026-04-23 09:46 | 2.17586 | -33.30888 | 40964 ft | 479 kts | 32° |
| 2026-04-23 09:47 | 2.23389 | -33.27698 | 40954 ft | 479 kts | 32° |
| 2026-04-23 09:47 | 2.29243 | -33.24479 | 40961 ft | 479 kts | 32° |
| 2026-04-23 09:48 | 2.35097 | -33.21260 | 40957 ft | 480 kts | 32° |
| 2026-04-23 09:48 | 2.40956 | -33.18039 | 40964 ft | 480 kts | 32° |
| 2026-04-23 09:49 | 2.46780 | -33.14836 | 40964 ft | 481 kts | 32° |
| 2026-04-23 09:49 | 2.52649 | -33.11608 | 40956 ft | 481 kts | 32° |
| 2026-04-23 09:50 | 2.58528 | -33.08374 | 40958 ft | 481 kts | 32° |
| 2026-04-23 09:50 | 2.64403 | -33.05142 | 40954 ft | 482 kts | 32° |
| 2026-04-23 09:51 | 2.70276 | -33.01911 | 40956 ft | 482 kts | 32° |
| 2026-04-23 09:51 | 2.76153 | -32.98677 | 40958 ft | 482 kts | 31° |
| 2026-04-23 09:52 | 2.81995 | -32.95462 | 40957 ft | 482 kts | 31° |
| 2026-04-23 09:52 | 2.87874 | -32.92227 | 40956 ft | 482 kts | 31° |
| 2026-04-23 09:53 | 2.93744 | -32.88996 | 40955 ft | 481 kts | 31° |
| 2026-04-23 09:53 | 2.99606 | -32.85769 | 40956 ft | 481 kts | 31° |
| 2026-04-23 09:54 | 3.05473 | -32.82539 | 40957 ft | 480 kts | 31° |
| 2026-04-23 09:54 | 3.11293 | -32.79334 | 40959 ft | 480 kts | 31° |
| 2026-04-23 09:55 | 3.17144 | -32.76113 | 40960 ft | 479 kts | 31° |
| 2026-04-23 09:55 | 3.22984 | -32.72896 | 40958 ft | 479 kts | 31° |
| 2026-04-23 09:56 | 3.28816 | -32.69684 | 40959 ft | 479 kts | 31° |
| 2026-04-23 09:56 | 3.34654 | -32.66468 | 40958 ft | 479 kts | 31° |
| 2026-04-23 09:57 | 3.40457 | -32.63271 | 40958 ft | 478 kts | 30° |
| 2026-04-23 09:57 | 3.46291 | -32.60057 | 40962 ft | 478 kts | 30° |
| 2026-04-23 09:58 | 3.52122 | -32.56843 | 40960 ft | 478 kts | 30° |
| 2026-04-23 09:58 | 3.57958 | -32.53626 | 40958 ft | 478 kts | 30° |
| 2026-04-23 09:59 | 3.63785 | -32.50414 | 40962 ft | 478 kts | 30° |
| 2026-04-23 09:59 | 3.69623 | -32.47195 | 40961 ft | 478 kts | 30° |
| 2026-04-23 10:00 | 3.75449 | -32.43983 | 40964 ft | 478 kts | 31° |
| 2026-04-23 10:00 | 3.81242 | -32.40788 | 40963 ft | 478 kts | 31° |
| 2026-04-23 10:01 | 3.87077 | -32.37570 | 40964 ft | 478 kts | 31° |
| 2026-04-23 10:01 | 3.92906 | -32.34354 | 40965 ft | 478 kts | 31° |
| 2026-04-23 10:02 | 3.98708 | -32.31153 | 40964 ft | 478 kts | 31° |
| 2026-04-23 10:02 | 4.04542 | -32.27933 | 40964 ft | 478 kts | 31° |
| 2026-04-23 10:03 | 4.10379 | -32.24711 | 40965 ft | 479 kts | 31° |
| 2026-04-23 10:03 | 4.16220 | -32.21487 | 40967 ft | 479 kts | 31° |
| 2026-04-23 10:04 | 4.22063 | -32.18261 | 40966 ft | 479 kts | 31° |
| 2026-04-23 10:04 | 4.27906 | -32.15034 | 40970 ft | 479 kts | 31° |
| 2026-04-23 10:05 | 4.33718 | -32.11825 | 40968 ft | 480 kts | 31° |
| 2026-04-23 10:05 | 4.39572 | -32.08591 | 40970 ft | 480 kts | 31° |
| 2026-04-23 10:06 | 4.45422 | -32.05359 | 40967 ft | 480 kts | 31° |
| 2026-04-23 10:06 | 4.51274 | -32.02125 | 40966 ft | 480 kts | 31° |
| 2026-04-23 10:07 | 4.57133 | -31.98886 | 40967 ft | 481 kts | 31° |
| 2026-04-23 10:07 | 4.62995 | -31.95646 | 40970 ft | 481 kts | 31° |
| 2026-04-23 10:08 | 4.68862 | -31.92402 | 40968 ft | 481 kts | 31° |
| 2026-04-23 10:08 | 4.74691 | -31.89178 | 40970 ft | 481 kts | 31° |
| 2026-04-23 10:09 | 4.83498 | -31.84306 | 40971 ft | 481 kts | 31° |
| 2026-04-23 10:09 | 4.89359 | -31.81063 | 40972 ft | 481 kts | 31° |
| 2026-04-23 10:10 | 4.95233 | -31.77812 | 40975 ft | 481 kts | 31° |
| 2026-04-23 10:10 | 5.01102 | -31.74563 | 40975 ft | 481 kts | 31° |
| 2026-04-23 10:11 | 5.06926 | -31.71339 | 40974 ft | 481 kts | 31° |
| 2026-04-23 10:11 | 5.12792 | -31.68091 | 40979 ft | 481 kts | 31° |
| 2026-04-23 10:12 | 5.18653 | -31.64844 | 40975 ft | 481 kts | 31° |
| 2026-04-23 10:12 | 5.24517 | -31.61591 | 40975 ft | 481 kts | 31° |
| 2026-04-23 10:13 | 5.30366 | -31.58304 | 40976 ft | 481 kts | 31° |
| 2026-04-23 10:13 | 5.36214 | -31.55006 | 40978 ft | 481 kts | 31° |
| 2026-04-23 10:14 | 5.42058 | -31.51717 | 40977 ft | 481 kts | 31° |
| 2026-04-23 10:14 | 5.47897 | -31.48433 | 40977 ft | 481 kts | 31° |
| 2026-04-23 10:15 | 5.53710 | -31.45165 | 40978 ft | 481 kts | 31° |
| 2026-04-23 10:15 | 5.59560 | -31.41875 | 40980 ft | 481 kts | 31° |
| 2026-04-23 10:16 | 5.65397 | -31.38591 | 40977 ft | 481 kts | 31° |
| 2026-04-23 10:16 | 5.71241 | -31.35303 | 40980 ft | 481 kts | 31° |
| 2026-04-23 10:17 | 5.77085 | -31.32013 | 40982 ft | 481 kts | 31° |
| 2026-04-23 10:17 | 5.82936 | -31.28719 | 40983 ft | 482 kts | 31° |
| 2026-04-23 10:18 | 5.88747 | -31.25447 | 40983 ft | 482 kts | 31° |
| 2026-04-23 10:18 | 5.94607 | -31.22147 | 40986 ft | 483 kts | 31° |
| 2026-04-23 10:19 | 6.00473 | -31.18842 | 40984 ft | 483 kts | 31° |
| 2026-04-23 10:19 | 6.06346 | -31.15533 | 40986 ft | 484 kts | 31° |
| 2026-04-23 10:20 | 6.12215 | -31.12225 | 40986 ft | 484 kts | 31° |
| 2026-04-23 10:20 | 6.18055 | -31.08933 | 40984 ft | 484 kts | 31° |
| 2026-04-23 10:21 | 6.23936 | -31.05615 | 40985 ft | 484 kts | 31° |
| 2026-04-23 10:21 | 6.29818 | -31.02297 | 40988 ft | 485 kts | 31° |
| 2026-04-23 10:22 | 6.35707 | -30.98974 | 40988 ft | 485 kts | 31° |
| 2026-04-23 10:22 | 6.41593 | -30.95652 | 40990 ft | 485 kts | 31° |
| 2026-04-23 10:23 | 6.47481 | -30.92329 | 40990 ft | 485 kts | 31° |
| 2026-04-23 10:23 | 6.52380 | -30.89563 | 40990 ft | 486 kts | 31° |
| 2026-04-23 10:24 | 6.58272 | -30.86235 | 40990 ft | 486 kts | 31° |
| 2026-04-23 10:24 | 6.65127 | -30.82362 | 40990 ft | 486 kts | 31° |
| 2026-04-23 10:25 | 6.70075 | -30.79566 | 40995 ft | 486 kts | 31° |
| 2026-04-23 10:25 | 6.75946 | -30.76247 | 40992 ft | 486 kts | 31° |
| 2026-04-23 10:26 | 6.81852 | -30.72907 | 40996 ft | 487 kts | 31° |
| 2026-04-23 10:26 | 6.87766 | -30.69562 | 40992 ft | 487 kts | 31° |
| 2026-04-23 10:27 | 6.93674 | -30.66220 | 40992 ft | 487 kts | 31° |
| 2026-04-23 10:27 | 6.99592 | -30.62871 | 40993 ft | 488 kts | 31° |
| 2026-04-23 10:28 | 7.05468 | -30.59544 | 40996 ft | 488 kts | 31° |
| 2026-04-23 10:28 | 7.11392 | -30.56189 | 40998 ft | 488 kts | 31° |
| 2026-04-23 10:29 | 7.17319 | -30.52832 | 40994 ft | 488 kts | 31° |
| 2026-04-23 10:29 | 7.23243 | -30.49475 | 40996 ft | 489 kts | 31° |
| 2026-04-23 10:30 | 7.29174 | -30.46114 | 41002 ft | 489 kts | 31° |
| 2026-04-23 10:30 | 7.35102 | -30.42753 | 40999 ft | 489 kts | 31° |
| 2026-04-23 10:31 | 7.41033 | -30.39389 | 40999 ft | 489 kts | 31° |
| 2026-04-23 10:31 | 7.46937 | -30.36040 | 40997 ft | 489 kts | 31° |
| 2026-04-23 10:32 | 7.52872 | -30.32673 | 40998 ft | 489 kts | 31° |
| 2026-04-23 10:32 | 7.58808 | -30.29303 | 41000 ft | 490 kts | 31° |
| 2026-04-23 10:33 | 7.64749 | -30.25929 | 40999 ft | 490 kts | 31° |
| 2026-04-23 10:33 | 7.70687 | -30.22556 | 40999 ft | 490 kts | 31° |
| 2026-04-23 10:34 | 7.76590 | -30.19202 | 41000 ft | 490 kts | 31° |
| 2026-04-23 10:34 | 7.82533 | -30.15824 | 41001 ft | 491 kts | 31° |
| 2026-04-23 10:35 | 7.88484 | -30.12440 | 41001 ft | 491 kts | 31° |
| 2026-04-23 10:35 | 7.94438 | -30.09054 | 41000 ft | 491 kts | 31° |
| 2026-04-23 10:36 | 8.00400 | -30.05662 | 41004 ft | 491 kts | 31° |
| 2026-04-23 10:36 | 8.06325 | -30.02289 | 41002 ft | 491 kts | 31° |
| 2026-04-23 10:37 | 8.12285 | -29.98896 | 41002 ft | 491 kts | 31° |
| 2026-04-23 10:37 | 8.18243 | -29.95503 | 41002 ft | 492 kts | 31° |
| 2026-04-23 10:38 | 8.24207 | -29.92104 | 41002 ft | 492 kts | 31° |
| 2026-04-23 10:38 | 8.30174 | -29.88704 | 41001 ft | 493 kts | 31° |
| 2026-04-23 10:39 | 8.36145 | -29.85299 | 41003 ft | 493 kts | 31° |
| 2026-04-23 10:39 | 8.42121 | -29.81891 | 41004 ft | 493 kts | 31° |
| 2026-04-23 10:40 | 8.48105 | -29.78477 | 41004 ft | 494 kts | 31° |
| 2026-04-23 10:40 | 8.54087 | -29.75063 | 41005 ft | 494 kts | 31° |
| 2026-04-23 10:41 | 8.60044 | -29.71661 | 41004 ft | 495 kts | 31° |
| 2026-04-23 10:41 | 8.66039 | -29.68236 | 41004 ft | 495 kts | 31° |
| 2026-04-23 10:42 | 8.72051 | -29.64801 | 41005 ft | 496 kts | 31° |
| 2026-04-23 10:42 | 8.78058 | -29.61367 | 41003 ft | 496 kts | 31° |
| 2026-04-23 10:43 | 8.84077 | -29.57925 | 41007 ft | 497 kts | 31° |
| 2026-04-23 10:43 | 8.90096 | -29.54482 | 41009 ft | 497 kts | 31° |
| 2026-04-23 10:44 | 8.96116 | -29.51037 | 41008 ft | 497 kts | 31° |
| 2026-04-23 10:44 | 9.02108 | -29.47606 | 41011 ft | 498 kts | 31° |
| 2026-04-23 10:45 | 9.08142 | -29.44150 | 41009 ft | 498 kts | 31° |
| 2026-04-23 10:45 | 9.14186 | -29.40687 | 41009 ft | 498 kts | 31° |
| 2026-04-23 10:46 | 9.20228 | -29.37224 | 41011 ft | 499 kts | 31° |
| 2026-04-23 10:46 | 9.26228 | -29.33784 | 41009 ft | 499 kts | 31° |
| 2026-04-23 10:47 | 9.32275 | -29.30314 | 41013 ft | 499 kts | 31° |
| 2026-04-23 10:47 | 9.38335 | -29.26837 | 41014 ft | 500 kts | 31° |
| 2026-04-23 10:48 | 9.44394 | -29.23359 | 41015 ft | 500 kts | 31° |
| 2026-04-23 10:48 | 9.50420 | -29.19898 | 41016 ft | 500 kts | 31° |
| 2026-04-23 10:49 | 9.56484 | -29.16413 | 41015 ft | 501 kts | 31° |
| 2026-04-23 10:49 | 9.62547 | -29.12929 | 41015 ft | 501 kts | 31° |
| 2026-04-23 10:50 | 9.68622 | -29.09435 | 41018 ft | 501 kts | 31° |
| 2026-04-23 10:50 | 9.74699 | -29.05939 | 41018 ft | 502 kts | 31° |
| 2026-04-23 10:51 | 9.80736 | -29.02465 | 41018 ft | 502 kts | 31° |
| 2026-04-23 10:51 | 9.86820 | -28.98961 | 41017 ft | 503 kts | 31° |
| 2026-04-23 10:52 | 9.92904 | -28.95456 | 40971 ft | 503 kts | 31° |
| 2026-04-23 10:52 | 9.98965 | -28.91963 | 41019 ft | 497 kts | 30° |
| 2026-04-23 10:53 | 10.04957 | -28.88509 | 41018 ft | 495 kts | 30° |
| 2026-04-23 10:53 | 10.10915 | -28.85072 | 41017 ft | 495 kts | 30° |
| 2026-04-23 10:54 | 10.16914 | -28.81609 | 41018 ft | 495 kts | 30° |
| 2026-04-23 10:54 | 10.22912 | -28.78145 | 41017 ft | 496 kts | 30° |
| 2026-04-23 10:55 | 10.28904 | -28.74684 | 41017 ft | 496 kts | 30° |
| 2026-04-23 10:55 | 10.34910 | -28.71213 | 41019 ft | 496 kts | 30° |
| 2026-04-23 10:56 | 10.40870 | -28.67769 | 41016 ft | 496 kts | 30° |
| 2026-04-23 10:56 | 10.46875 | -28.64296 | 41018 ft | 496 kts | 30° |
| 2026-04-23 10:57 | 10.52889 | -28.60816 | 41018 ft | 497 kts | 30° |
| 2026-04-23 10:57 | 10.58899 | -28.57338 | 41018 ft | 497 kts | 30° |
| 2026-04-23 10:58 | 10.64902 | -28.53860 | 41022 ft | 497 kts | 30° |
| 2026-04-23 10:58 | 10.70871 | -28.50402 | 41020 ft | 497 kts | 30° |
| 2026-04-23 10:59 | 10.76880 | -28.46918 | 41025 ft | 497 kts | 30° |
| 2026-04-23 10:59 | 10.82893 | -28.43431 | 41023 ft | 497 kts | 30° |
| 2026-04-23 11:00 | 10.88895 | -28.39948 | 41026 ft | 497 kts | 30° |
| 2026-04-23 11:00 | 10.94921 | -28.36451 | 41029 ft | 498 kts | 30° |
| 2026-04-23 11:01 | 11.00936 | -28.32958 | 41030 ft | 498 kts | 29° |
| 2026-04-23 11:01 | 11.06919 | -28.29482 | 41030 ft | 498 kts | 29° |
| 2026-04-23 11:02 | 11.12928 | -28.25988 | 41027 ft | 497 kts | 29° |
| 2026-04-23 11:02 | 11.18945 | -28.22489 | 41029 ft | 498 kts | 29° |
| 2026-04-23 11:03 | 11.24955 | -28.18992 | 41029 ft | 498 kts | 29° |
| 2026-04-23 11:03 | 11.30970 | -28.15491 | 41027 ft | 498 kts | 29° |
| 2026-04-23 11:04 | 11.36982 | -28.11988 | 41029 ft | 498 kts | 29° |
| 2026-04-23 11:04 | 11.43001 | -28.08481 | 41031 ft | 498 kts | 29° |
| 2026-04-23 11:05 | 11.48980 | -28.04996 | 41032 ft | 498 kts | 29° |
| 2026-04-23 11:05 | 11.54996 | -28.01487 | 41031 ft | 498 kts | 29° |
| 2026-04-23 11:06 | 11.64014 | -27.96223 | 41034 ft | 497 kts | 29° |
| 2026-04-23 11:07 | 11.70025 | -27.92713 | 41034 ft | 497 kts | 29° |
| 2026-04-23 11:07 | 11.76041 | -27.89197 | 41033 ft | 497 kts | 29° |
| 2026-04-23 11:08 | 11.82004 | -27.85711 | 41034 ft | 497 kts | 29° |
| 2026-04-23 11:08 | 11.88012 | -27.82197 | 41035 ft | 497 kts | 29° |
| 2026-04-23 11:09 | 11.94016 | -27.78683 | 41037 ft | 496 kts | 29° |
| 2026-04-23 11:09 | 12.00012 | -27.75172 | 41032 ft | 496 kts | 29° |
| 2026-04-23 11:10 | 12.05965 | -27.71685 | 41037 ft | 496 kts | 28° |
| 2026-04-23 11:10 | 12.11948 | -27.68178 | 41038 ft | 496 kts | 28° |
| 2026-04-23 11:11 | 12.17937 | -27.64665 | 41037 ft | 496 kts | 28° |
| 2026-04-23 11:11 | 12.23924 | -27.61153 | 41034 ft | 496 kts | 28° |
| 2026-04-23 11:12 | 12.29913 | -27.57637 | 41035 ft | 496 kts | 28° |
| 2026-04-23 11:12 | 12.35858 | -27.54145 | 41034 ft | 496 kts | 28° |
| 2026-04-23 11:13 | 12.41850 | -27.50623 | 41033 ft | 496 kts | 28° |
| 2026-04-23 11:13 | 12.47842 | -27.47100 | 41036 ft | 496 kts | 28° |
| 2026-04-23 11:14 | 12.53835 | -27.43574 | 41038 ft | 497 kts | 28° |
| 2026-04-23 11:14 | 12.59827 | -27.40047 | 41041 ft | 497 kts | 28° |
| 2026-04-23 11:15 | 12.65799 | -27.36530 | 41042 ft | 497 kts | 28° |
| 2026-04-23 11:15 | 12.71796 | -27.32996 | 41039 ft | 497 kts | 28° |
| 2026-04-23 11:16 | 12.76826 | -27.30031 | 41039 ft | 498 kts | 28° |
| 2026-04-23 11:16 | 12.82795 | -27.26510 | 41044 ft | 498 kts | 28° |
| 2026-04-23 11:17 | 12.88806 | -27.22962 | 41042 ft | 499 kts | 28° |
| 2026-04-23 11:17 | 12.94824 | -27.19409 | 41042 ft | 499 kts | 28° |
| 2026-04-23 11:18 | 13.00846 | -27.15850 | 41043 ft | 500 kts | 28° |
| 2026-04-23 11:18 | 13.06886 | -27.12279 | 41045 ft | 500 kts | 28° |
| 2026-04-23 11:19 | 13.12920 | -27.08710 | 41045 ft | 501 kts | 28° |
| 2026-04-23 11:19 | 13.18919 | -27.05160 | 41043 ft | 501 kts | 28° |
| 2026-04-23 11:20 | 13.24959 | -27.01582 | 41046 ft | 501 kts | 28° |
| 2026-04-23 11:20 | 13.31001 | -26.98002 | 41047 ft | 501 kts | 28° |
| 2026-04-23 11:21 | 13.37039 | -26.94422 | 41047 ft | 502 kts | 28° |
| 2026-04-23 11:21 | 13.43099 | -26.90827 | 41044 ft | 502 kts | 28° |
| 2026-04-23 11:22 | 13.49160 | -26.87229 | 41046 ft | 503 kts | 28° |
| 2026-04-23 11:22 | 13.55213 | -26.83634 | 41045 ft | 503 kts | 28° |
| 2026-04-23 11:23 | 13.61284 | -26.80026 | 41047 ft | 503 kts | 28° |
| 2026-04-23 11:23 | 13.67353 | -26.76417 | 41051 ft | 504 kts | 28° |
| 2026-04-23 11:24 | 13.73393 | -26.72824 | 41048 ft | 504 kts | 28° |
| 2026-04-23 11:24 | 13.79471 | -26.69205 | 41048 ft | 505 kts | 28° |
| 2026-04-23 11:25 | 13.85548 | -26.65585 | 41050 ft | 505 kts | 28° |
| 2026-04-23 11:25 | 13.91635 | -26.61956 | 41047 ft | 505 kts | 28° |
| 2026-04-23 11:26 | 13.97721 | -26.58327 | 41050 ft | 505 kts | 28° |
| 2026-04-23 11:26 | 14.03809 | -26.54693 | 41052 ft | 506 kts | 28° |
| 2026-04-23 11:27 | 14.09898 | -26.51056 | 41051 ft | 506 kts | 27° |
| 2026-04-23 11:27 | 14.15996 | -26.47413 | 41050 ft | 507 kts | 27° |
| 2026-04-23 11:28 | 14.22061 | -26.43786 | 41051 ft | 507 kts | 27° |
| 2026-04-23 11:28 | 14.28166 | -26.40134 | 41049 ft | 507 kts | 27° |
| 2026-04-23 11:29 | 14.34280 | -26.36473 | 41053 ft | 508 kts | 27° |
| 2026-04-23 11:29 | 14.40389 | -26.32810 | 41052 ft | 508 kts | 27° |
| 2026-04-23 11:30 | 14.46502 | -26.29136 | 41054 ft | 509 kts | 27° |
| 2026-04-23 11:30 | 14.52627 | -26.25454 | 41053 ft | 509 kts | 27° |
| 2026-04-23 11:31 | 14.58748 | -26.21772 | 41054 ft | 509 kts | 27° |
| 2026-04-23 11:31 | 14.64877 | -26.18083 | 41057 ft | 510 kts | 27° |
| 2026-04-23 11:32 | 14.70966 | -26.14416 | 41057 ft | 510 kts | 27° |
| 2026-04-23 11:32 | 14.77099 | -26.10720 | 41057 ft | 510 kts | 27° |
| 2026-04-23 11:33 | 14.83240 | -26.07017 | 41059 ft | 511 kts | 27° |
| 2026-04-23 11:33 | 14.89384 | -26.03310 | 41059 ft | 511 kts | 27° |
| 2026-04-23 11:34 | 14.95534 | -25.99596 | 41059 ft | 511 kts | 27° |
| 2026-04-23 11:34 | 15.01646 | -25.95903 | 41055 ft | 512 kts | 27° |
| 2026-04-23 11:35 | 15.07809 | -25.92176 | 41058 ft | 512 kts | 27° |
| 2026-04-23 11:35 | 15.13960 | -25.88455 | 41059 ft | 512 kts | 27° |
| 2026-04-23 11:36 | 15.20118 | -25.84727 | 41062 ft | 513 kts | 27° |
| 2026-04-23 11:36 | 15.26271 | -25.80998 | 41058 ft | 513 kts | 27° |
| 2026-04-23 11:37 | 15.32440 | -25.77258 | 41059 ft | 513 kts | 27° |
| 2026-04-23 11:37 | 15.38604 | -25.73519 | 41060 ft | 513 kts | 27° |
| 2026-04-23 11:38 | 15.44626 | -25.69619 | 41057 ft | 518 kts | 37° |
| 2026-04-23 11:38 | 15.47114 | -25.66910 | 41065 ft | 521 kts | 53° |
| 2026-04-23 11:38 | 15.49095 | -25.63758 | 41064 ft | 522 kts | 58° |
| 2026-04-23 11:39 | 15.52861 | -25.57287 | 41062 ft | 524 kts | 57° |
| 2026-04-23 11:39 | 15.56673 | -25.50828 | 41063 ft | 525 kts | 57° |
| 2026-04-23 11:40 | 15.60501 | -25.44385 | 41061 ft | 525 kts | 57° |
| 2026-04-23 11:40 | 15.64337 | -25.37937 | 40919 ft | 525 kts | 57° |
| 2026-04-23 11:40 | 15.66251 | -25.34717 | 40668 ft | 525 kts | 57° |
| 2026-04-23 11:41 | 15.68175 | -25.31482 | 40430 ft | 527 kts | 57° |
| 2026-04-23 11:41 | 15.70103 | -25.28240 | 40178 ft | 528 kts | 57° |
| 2026-04-23 11:41 | 15.72036 | -25.24987 | 39930 ft | 529 kts | 57° |
| 2026-04-23 11:41 | 15.73970 | -25.21731 | 39700 ft | 530 kts | 57° |
| 2026-04-23 11:42 | 15.75884 | -25.18507 | 39473 ft | 531 kts | 57° |
| 2026-04-23 11:42 | 15.77825 | -25.15237 | 39235 ft | 532 kts | 57° |
| 2026-04-23 11:42 | 15.79770 | -25.11958 | 39001 ft | 533 kts | 56° |
| 2026-04-23 11:42 | 15.81717 | -25.08673 | 38777 ft | 534 kts | 56° |
| 2026-04-23 11:43 | 15.83674 | -25.05372 | 38517 ft | 535 kts | 56° |
| 2026-04-23 11:43 | 15.85628 | -25.02074 | 38245 ft | 536 kts | 56° |
| 2026-04-23 11:43 | 15.87584 | -24.98770 | 37980 ft | 537 kts | 56° |
| 2026-04-23 11:43 | 15.89541 | -24.95464 | 37719 ft | 538 kts | 56° |
| 2026-04-23 11:44 | 15.91503 | -24.92146 | 37459 ft | 538 kts | 56° |
| 2026-04-23 11:44 | 15.93441 | -24.88869 | 37205 ft | 539 kts | 56° |
| 2026-04-23 11:44 | 15.95407 | -24.85544 | 36953 ft | 540 kts | 56° |
| 2026-04-23 11:44 | 15.97372 | -24.82218 | 36699 ft | 540 kts | 56° |
| 2026-04-23 11:45 | 15.99341 | -24.78883 | 36453 ft | 541 kts | 56° |
| 2026-04-23 11:45 | 16.01309 | -24.75550 | 36209 ft | 542 kts | 55° |
| 2026-04-23 11:45 | 16.03281 | -24.72207 | 35979 ft | 542 kts | 55° |
| 2026-04-23 11:45 | 16.05255 | -24.68860 | 35735 ft | 543 kts | 55° |
| 2026-04-23 11:46 | 16.07225 | -24.65516 | 35198 ft | 541 kts | 55° |
| 2026-04-23 11:46 | 16.09190 | -24.62180 | 34424 ft | 543 kts | 54° |
| 2026-04-23 11:46 | 16.11169 | -24.58821 | 33490 ft | 546 kts | 54° |
| 2026-04-23 11:46 | 16.13159 | -24.55445 | 32557 ft | 549 kts | 54° |
| 2026-04-23 11:47 | 16.15159 | -24.52049 | 31638 ft | 551 kts | 54° |
| 2026-04-23 11:47 | 16.17167 | -24.48637 | 30670 ft | 554 kts | 54° |
| 2026-04-23 11:47 | 16.19159 | -24.45249 | 29669 ft | 557 kts | 54° |
| 2026-04-23 11:47 | 16.21173 | -24.41822 | 28877 ft | 553 kts | 55° |
| 2026-04-23 11:48 | 16.23166 | -24.38426 | 28132 ft | 548 kts | 55° |
| 2026-04-23 11:48 | 16.25143 | -24.35055 | 27410 ft | 543 kts | 55° |
| 2026-04-23 11:48 | 16.27104 | -24.31712 | 26696 ft | 538 kts | 55° |
| 2026-04-23 11:48 | 16.29046 | -24.28400 | 25984 ft | 534 kts | 56° |
| 2026-04-23 11:49 | 16.30977 | -24.25106 | 25273 ft | 531 kts | 56° |
| 2026-04-23 11:49 | 16.32894 | -24.21836 | 24567 ft | 527 kts | 56° |
| 2026-04-23 11:49 | 16.34797 | -24.18587 | 23886 ft | 523 kts | 56° |
| 2026-04-23 11:49 | 16.36685 | -24.15360 | 23150 ft | 518 kts | 56° |
| 2026-04-23 11:50 | 16.38545 | -24.12181 | 22443 ft | 512 kts | 56° |
| 2026-04-23 11:50 | 16.40392 | -24.09023 | 21745 ft | 505 kts | 57° |
| 2026-04-23 11:50 | 16.42185 | -24.05955 | 21078 ft | 499 kts | 57° |
| 2026-04-23 11:50 | 16.44000 | -24.02849 | 20412 ft | 492 kts | 57° |
| 2026-04-23 11:51 | 16.45747 | -23.99858 | 19775 ft | 486 kts | 57° |
| 2026-04-23 11:51 | 16.47495 | -23.96865 | 19123 ft | 480 kts | 57° |
| 2026-04-23 11:51 | 16.49221 | -23.93907 | 18491 ft | 474 kts | 57° |
| 2026-04-23 11:51 | 16.50928 | -23.90980 | 17789 ft | 468 kts | 57° |
| 2026-04-23 11:52 | 16.52611 | -23.88093 | 17094 ft | 462 kts | 57° |
| 2026-04-23 11:52 | 16.54268 | -23.85250 | 16405 ft | 456 kts | 58° |
| 2026-04-23 11:52 | 16.55902 | -23.82445 | 15739 ft | 450 kts | 58° |
| 2026-04-23 11:52 | 16.57516 | -23.79674 | 15067 ft | 444 kts | 58° |
| 2026-04-23 11:53 | 16.59087 | -23.76974 | 14419 ft | 438 kts | 58° |
| 2026-04-23 11:53 | 16.60661 | -23.74268 | 13747 ft | 432 kts | 58° |
| 2026-04-23 11:53 | 16.62015 | -23.71488 | 12914 ft | 430 kts | 70° |
| 2026-04-23 11:53 | 16.62564 | -23.68453 | 12168 ft | 425 kts | 90° |
| 2026-04-23 11:54 | 16.62307 | -23.65448 | 11873 ft | 407 kts | 99° |
| 2026-04-23 11:54 | 16.61904 | -23.62593 | 11683 ft | 390 kts | 99° |
| 2026-04-23 11:54 | 16.61526 | -23.59853 | 11509 ft | 374 kts | 99° |
| 2026-04-23 11:54 | 16.61177 | -23.57223 | 11340 ft | 359 kts | 99° |
| 2026-04-23 11:55 | 16.60850 | -23.54694 | 11185 ft | 345 kts | 99° |
| 2026-04-23 11:55 | 16.60541 | -23.52262 | 11019 ft | 332 kts | 99° |
| 2026-04-23 11:55 | 16.60248 | -23.49937 | 10776 ft | 324 kts | 99° |
| 2026-04-23 11:55 | 16.59958 | -23.47619 | 10433 ft | 320 kts | 99° |
| 2026-04-23 11:56 | 16.59670 | -23.45322 | 10055 ft | 318 kts | 100° |
| 2026-04-23 11:56 | 16.59385 | -23.43043 | 9682 ft | 315 kts | 100° |
| 2026-04-23 11:56 | 16.59104 | -23.40796 | 9353 ft | 311 kts | 99° |
| 2026-04-23 11:56 | 16.58825 | -23.38568 | 9036 ft | 309 kts | 99° |
| 2026-04-23 11:57 | 16.58547 | -23.36347 | 8712 ft | 308 kts | 99° |
| 2026-04-23 11:57 | 16.58270 | -23.34132 | 8389 ft | 307 kts | 99° |
| 2026-04-23 11:57 | 16.57995 | -23.31933 | 8078 ft | 305 kts | 99° |
| 2026-04-23 11:57 | 16.57724 | -23.29770 | 7758 ft | 304 kts | 99° |
| 2026-04-23 11:58 | 16.57451 | -23.27584 | 7440 ft | 303 kts | 99° |
| 2026-04-23 11:58 | 16.57178 | -23.25407 | 7120 ft | 302 kts | 99° |
| 2026-04-23 11:58 | 16.56907 | -23.23242 | 6802 ft | 301 kts | 98° |
| 2026-04-23 11:58 | 16.56635 | -23.21076 | 6465 ft | 300 kts | 98° |
| 2026-04-23 11:59 | 16.56365 | -23.18926 | 6142 ft | 298 kts | 98° |
| 2026-04-23 11:59 | 16.56098 | -23.16796 | 5811 ft | 296 kts | 98° |
| 2026-04-23 11:59 | 16.55829 | -23.14665 | 5460 ft | 295 kts | 98° |
| 2026-04-23 11:59 | 16.55565 | -23.12563 | 5093 ft | 289 kts | 98° |
| 2026-04-23 12:00 | 16.55308 | -23.10517 | 4814 ft | 284 kts | 98° |
| 2026-04-23 12:00 | 16.55058 | -23.08545 | 4681 ft | 268 kts | 97° |
| 2026-04-23 12:00 | 16.54813 | -23.06615 | 4471 ft | 266 kts | 97° |
| 2026-04-23 12:00 | 16.54573 | -23.04725 | 4162 ft | 262 kts | 96° |
| 2026-04-23 12:01 | 16.54362 | -23.02854 | 3864 ft | 256 kts | 94° |
| 2026-04-23 12:01 | 16.54187 | -23.01005 | 3628 ft | 255 kts | 93° |
| 2026-04-23 12:01 | 16.54011 | -22.99179 | 3348 ft | 252 kts | 92° |
| 2026-04-23 12:01 | 16.54023 | -22.97397 | 3080 ft | 242 kts | 75° |
| 2026-04-23 12:02 | 16.54820 | -22.95929 | 2757 ft | 232 kts | 39° |
| 2026-04-23 12:02 | 16.56158 | -22.95137 | 2586 ft | 214 kts | 19° |
| 2026-04-23 12:02 | 16.57510 | -22.94746 | 2512 ft | 191 kts | 6° |
| 2026-04-23 12:02 | 16.58765 | -22.94777 | 2473 ft | 172 kts | 357° |
| 2026-04-23 12:03 | 16.59912 | -22.94824 | 2402 ft | 158 kts | 1° |
| 2026-04-23 12:03 | 16.60977 | -22.94814 | 2302 ft | 147 kts | 2° |
| 2026-04-23 12:03 | 16.61979 | -22.94818 | 2214 ft | 141 kts | 1° |
| 2026-04-23 12:03 | 16.62950 | -22.94822 | 2048 ft | 138 kts | 2° |
| 2026-04-23 12:04 | 16.63571 | -22.94824 | 1913 ft | 131 kts | 0° |
| 2026-04-23 12:04 | 16.64447 | -22.94831 | 1754 ft | 123 kts | 0° |
| 2026-04-23 12:04 | 16.65304 | -22.94838 | 1604 ft | 123 kts | 0° |
| 2026-04-23 12:04 | 16.66161 | -22.94845 | 1433 ft | 122 kts | 3° |
| 2026-04-23 12:05 | 16.67005 | -22.94849 | 1262 ft | 120 kts | 3° |
| 2026-04-23 12:05 | 16.67833 | -22.94855 | 1111 ft | 119 kts | 2° |
| 2026-04-23 12:05 | 16.68668 | -22.94861 | 941 ft | 120 kts | 2° |
| 2026-04-23 12:05 | 16.69509 | -22.94867 | 785 ft | 121 kts | 3° |
| 2026-04-23 12:06 | 16.70365 | -22.94872 | 625 ft | 124 kts | 3° |
| 2026-04-23 12:06 | 16.71225 | -22.94879 | 458 ft | 123 kts | 2° |
| 2026-04-23 12:06 | 16.72909 | -22.94897 | 204 ft | 113 kts | 2° |
| 2026-04-23 12:07 | 16.73542 | -22.94895 | 197 ft | 78 kts | 359° |
| 2026-04-23 12:07 | 16.73962 | -22.94898 | 198 ft | 20 kts | 358° |
| 2026-04-23 12:07 | 16.74090 | -22.94901 | 193 ft | 20 kts | 359° |
| 2026-04-23 12:07 | 16.74235 | -22.94852 | 193 ft | 23 kts | 46° |
| 2026-04-23 12:08 | 16.74291 | -22.94742 | 200 ft | 10 kts | 94° |
| 2026-04-23 12:08 | 16.74225 | -22.94701 | 194 ft | 17 kts | 175° |
| 2026-04-23 12:08 | 16.74030 | -22.94696 | 208 ft | 33 kts | 179° |
| 2026-04-23 12:08 | 16.73822 | -22.94697 | 200 ft | 23 kts | 181° |
| 2026-04-23 12:09 | 16.73669 | -22.94670 | 204 ft | 19 kts | 143° |
| 2026-04-23 12:09 | 16.73566 | -22.94604 | 207 ft | 18 kts | 155° |
| 2026-04-23 12:09 | 16.73503 | -22.94542 | 206 ft | 11 kts | 105° |
| 2026-04-23 12:09 | 16.73501 | -22.94517 | 205 ft | 0 kts | 95° |